createdAt,value
2019-01-11T00:02:45.799Z,6.60
2019-01-11T00:07:49.590Z,7.00
2019-01-11T00:12:53.392Z,8.00
2019-01-11T00:17:57.178Z,6.80
2019-01-11T00:23:01.466Z,8.00
2019-01-11T00:28:05.272Z,6.20
2019-01-11T00:33:09.049Z,6.80
2019-01-11T00:38:12.845Z,9.00
2019-01-11T00:43:16.742Z,6.75
2019-01-11T00:48:20.549Z,5.00
2019-01-11T00:53:24.354Z,7.75
2019-01-11T00:58:28.144Z,7.60
2019-01-11T01:03:31.940Z,5.80
2019-01-11T01:08:35.736Z,6.25
2019-01-11T01:13:39.529Z,6.50
2019-01-11T01:18:43.342Z,5.00
2019-01-11T01:23:47.135Z,6.40
2019-01-11T01:28:50.929Z,7.20
2019-01-11T01:33:54.719Z,6.50
2019-01-11T01:38:58.514Z,5.00
2019-01-11T01:44:02.306Z,5.00
2019-01-11T01:49:06.096Z,4.00
2019-01-11T01:54:09.899Z,4.60
2019-01-11T01:59:13.682Z,4.00
2019-01-11T02:04:17.501Z,5.50
2019-01-11T02:09:21.361Z,4.80
2019-01-11T02:14:25.167Z,5.00
2019-01-11T02:19:32.960Z,5.00
2019-01-11T02:24:34.524Z,5.00
2019-01-11T02:29:38.306Z,4.00
2019-01-11T02:34:42.083Z,4.60
2019-01-11T02:39:45.873Z,4.25
2019-01-11T02:44:49.719Z,4.00
2019-01-11T02:49:55.017Z,4.60
2019-01-11T02:54:59.075Z,5.00
2019-01-11T03:00:03.117Z,5.00
2019-01-11T03:05:07.125Z,3.60
2019-01-11T03:10:14.050Z,4.75
2019-01-11T03:15:18.379Z,3.00
2019-01-11T03:20:22.175Z,5.00
2019-01-11T03:25:25.955Z,4.20
2019-01-11T03:30:29.732Z,4.50
2019-01-11T03:35:33.545Z,4.00
2019-01-11T03:40:37.319Z,4.25
2019-01-11T03:45:41.135Z,4.00
2019-01-11T03:50:44.930Z,3.80
2019-01-11T03:55:48.709Z,3.50
2019-01-11T04:00:52.503Z,3.00
2019-01-11T04:05:56.317Z,3.00
2019-01-11T04:11:00.305Z,3.00
2019-01-11T04:16:04.100Z,3.20
2019-01-11T04:21:07.875Z,3.00
2019-01-11T04:26:11.659Z,3.50
2019-01-11T04:31:15.473Z,3.00
2019-01-11T04:36:19.274Z,3.00
2019-01-11T04:41:23.061Z,3.00
2019-01-11T04:46:26.910Z,2.20
2019-01-11T04:51:30.696Z,3.00
2019-01-11T04:56:34.495Z,3.00
2019-01-11T05:01:38.280Z,3.25
2019-01-11T05:06:42.111Z,2.00
2019-01-11T05:11:45.904Z,3.00
2019-01-11T05:16:49.681Z,3.75
2019-01-11T05:21:53.471Z,3.00
2019-01-11T05:26:57.280Z,3.00
2019-01-11T05:32:01.066Z,3.00
2019-01-11T05:37:04.871Z,3.80
2019-01-11T05:42:08.671Z,3.00
2019-01-11T05:47:12.541Z,3.00
2019-01-11T05:52:16.336Z,3.00
2019-01-11T05:57:20.130Z,3.50
2019-01-11T06:02:23.930Z,2.60
2019-01-11T06:07:30.914Z,5.00
2019-01-11T06:12:34.742Z,3.00
2019-01-11T06:17:38.525Z,3.00
2019-01-11T06:22:42.345Z,3.00
2019-01-11T06:27:46.143Z,3.00
2019-01-11T06:32:49.954Z,2.20
2019-01-11T06:37:53.755Z,3.00
2019-01-11T06:43:03.352Z,2.00
2019-01-11T06:48:03.114Z,2.60
2019-01-11T06:53:06.914Z,3.00
2019-01-11T06:58:10.729Z,3.00
2019-01-11T07:03:14.537Z,2.50
2019-01-11T07:08:18.367Z,2.00
2019-01-11T07:13:22.190Z,2.40
2019-01-11T07:18:25.994Z,3.40
2019-01-11T07:23:29.806Z,2.00
2019-01-11T07:28:33.598Z,2.50
2019-01-11T07:33:37.619Z,2.00
2019-01-11T07:38:41.411Z,2.40
2019-01-11T07:43:45.215Z,2.00
2019-01-11T07:48:49.023Z,2.25
2019-01-11T07:53:52.854Z,2.00
2019-01-11T07:58:56.661Z,2.75
2019-01-11T08:04:00.454Z,2.00
2019-01-11T08:09:06.157Z,2.00
2019-01-11T08:14:09.956Z,2.40
2019-01-11T08:19:15.041Z,2.00
2019-01-11T08:24:18.998Z,2.00
2019-01-11T08:29:22.824Z,20.25
2019-01-11T08:34:26.702Z,21.25
2019-01-11T08:39:32.516Z,21.25
2019-01-11T08:44:36.421Z,15.80
2019-01-11T08:49:40.227Z,16.00
2019-01-11T08:54:44.215Z,17.00
2019-01-11T08:59:48.126Z,17.50
2019-01-11T09:04:52.010Z,16.00
2019-01-11T09:09:55.853Z,18.75
2019-01-11T09:14:59.759Z,21.50
2019-01-11T09:20:03.637Z,23.25
2019-01-11T09:25:07.546Z,21.80
2019-01-11T09:30:11.387Z,19.00
2019-01-11T09:35:15.190Z,21.00
2019-01-11T09:40:19.042Z,21.75
2019-01-11T09:45:22.926Z,19.20
2019-01-11T09:50:26.922Z,19.00
2019-01-11T09:55:30.740Z,20.20
2019-01-11T10:00:34.542Z,21.00
2019-01-11T10:05:38.422Z,20.00
2019-01-11T10:10:42.319Z,18.75
2019-01-11T10:15:46.137Z,18.50
2019-01-11T10:20:51.640Z,18.20
2019-01-11T10:25:55.432Z,20.25
2019-01-11T10:31:00.757Z,19.00
2019-01-11T10:36:04.630Z,18.00
2019-01-11T10:41:08.454Z,19.00
2019-01-11T10:46:32.005Z,17.00
2019-01-11T10:51:35.820Z,17.80
2019-01-11T10:56:39.618Z,19.50
2019-01-11T11:01:43.442Z,18.75
2019-01-11T11:06:47.410Z,19.40
2019-01-11T11:11:51.202Z,14.25
2019-01-11T11:16:54.988Z,14.25
2019-01-11T11:21:58.803Z,17.00
2019-01-11T11:27:02.580Z,17.25
2019-01-11T11:32:06.386Z,16.75
2019-01-11T11:37:11.859Z,15.80
2019-01-11T11:42:16.902Z,16.00
2019-01-11T11:47:20.829Z,14.00
2019-01-11T11:52:24.630Z,17.60
2019-01-11T11:57:28.495Z,17.25
2019-01-11T12:02:32.430Z,16.00
2019-01-11T12:07:36.247Z,15.80
2019-01-11T12:12:40.057Z,14.00
2019-01-11T12:17:43.846Z,15.50
2019-01-11T12:22:47.694Z,14.50
2019-01-11T12:27:51.480Z,14.00
2019-01-11T12:32:55.303Z,13.50
2019-01-11T12:37:59.175Z,13.00
2019-01-11T12:43:02.979Z,13.50
2019-01-11T12:48:06.875Z,13.00
2019-01-11T12:53:10.720Z,14.40
2019-01-11T12:58:14.525Z,13.00
2019-01-11T13:03:18.360Z,12.00
2019-01-11T13:08:22.154Z,11.50
2019-01-11T13:13:25.982Z,12.40
2019-01-11T13:18:29.848Z,11.40
2019-01-11T13:23:33.727Z,11.00
2019-01-11T13:28:37.657Z,13.40
2019-01-11T13:33:41.540Z,12.00
2019-01-11T13:38:45.603Z,11.00
2019-01-11T13:43:49.446Z,12.50
2019-01-11T13:48:53.360Z,10.00
2019-01-11T13:53:57.164Z,13.00
2019-01-11T13:59:01.008Z,11.75
2019-01-11T14:04:04.822Z,11.20
2019-01-11T14:09:09.272Z,10.00
2019-01-11T14:14:13.535Z,11.25
2019-01-11T14:19:17.378Z,9.25
2019-01-11T14:24:21.256Z,10.75
2019-01-11T14:29:25.056Z,12.25
2019-01-11T14:34:28.849Z,11.50
2019-01-11T14:39:32.690Z,9.00
2019-01-11T14:44:36.528Z,8.25
2019-01-11T14:49:40.305Z,8.60
2019-01-11T14:54:44.122Z,9.60
2019-01-11T14:59:47.904Z,9.00
2019-01-11T15:04:51.719Z,9.00
2019-01-11T15:09:55.496Z,8.25
2019-01-11T15:14:59.295Z,9.00
2019-01-11T15:20:05.202Z,8.50
2019-01-11T15:25:09.526Z,7.40
2019-01-11T15:30:15.910Z,8.00
2019-01-11T15:35:19.930Z,8.20
2019-01-11T15:40:26.275Z,7.00
2019-01-11T15:45:30.109Z,8.00
2019-01-11T15:50:51.719Z,7.20
2019-01-11T15:55:58.520Z,9.00
2019-01-11T16:01:02.432Z,9.25
2019-01-11T16:06:31.547Z,6.25
2019-01-11T16:11:41.742Z,7.00
2019-01-11T16:16:52.109Z,7.75
2019-01-11T16:21:55.998Z,6.40
2019-01-11T16:26:59.769Z,8.25
2019-01-11T16:32:03.589Z,7.50
2019-01-11T16:37:08.649Z,6.00
2019-01-11T16:42:12.591Z,7.50
2019-01-11T16:47:16.390Z,6.75
2019-01-11T16:52:20.236Z,6.75
2019-01-11T16:57:24.053Z,6.40
2019-01-11T17:02:27.871Z,6.00
2019-01-11T17:07:31.664Z,6.50
2019-01-11T17:12:41.559Z,6.20
2019-01-11T17:17:41.208Z,7.00
2019-01-11T17:22:45.080Z,8.00
2019-01-11T17:27:48.898Z,7.25
2019-01-11T17:32:52.721Z,6.25
2019-01-11T17:37:56.583Z,7.00
2019-01-11T17:43:00.381Z,7.00
2019-01-11T17:48:04.206Z,6.00
2019-01-11T17:53:08.007Z,7.00
2019-01-11T17:58:11.794Z,6.50
2019-01-11T18:03:15.621Z,6.25
2019-01-11T18:08:19.436Z,4.00
2019-01-11T18:13:23.229Z,6.75
2019-01-11T18:18:27.027Z,6.20
2019-01-11T18:23:30.802Z,4.60
2019-01-11T18:28:34.779Z,6.00
2019-01-11T18:33:38.603Z,6.00
2019-01-11T18:38:42.384Z,6.20
2019-01-11T18:43:46.167Z,6.00
2019-01-11T18:48:49.991Z,5.50
2019-01-11T18:53:53.915Z,4.50
2019-01-11T18:58:57.925Z,5.50
2019-01-11T19:04:01.724Z,4.00
2019-01-11T19:09:08.137Z,6.00
2019-01-11T19:14:11.946Z,4.00
2019-01-11T19:19:15.898Z,3.50
2019-01-11T19:24:19.787Z,6.50
2019-01-11T19:29:23.587Z,4.00
2019-01-11T19:34:27.389Z,7.00
2019-01-11T19:39:31.180Z,3.40
2019-01-11T19:44:35.010Z,4.00
2019-01-11T19:49:38.842Z,4.00
2019-01-11T19:54:42.756Z,3.75
2019-01-11T19:59:46.625Z,3.25
2019-01-11T20:04:50.441Z,3.80
2019-01-11T20:09:54.224Z,4.00
2019-01-11T20:14:58.051Z,4.00
2019-01-11T20:20:02.259Z,4.00
2019-01-11T20:25:11.206Z,3.80
2019-01-11T20:30:17.381Z,2.75
2019-01-11T20:35:21.177Z,4.00
2019-01-11T20:40:24.968Z,2.75
2019-01-11T20:45:28.759Z,3.50
2019-01-11T20:50:32.546Z,3.00
2019-01-11T20:55:36.486Z,3.00
2019-01-11T21:00:40.272Z,3.00
2019-01-11T21:05:44.067Z,2.50
2019-01-11T21:10:48.574Z,2.80
2019-01-11T21:15:52.373Z,2.20
2019-01-11T21:20:56.207Z,3.00
2019-01-11T21:25:59.986Z,3.25
2019-01-11T21:31:03.771Z,3.00
2019-01-11T21:36:07.582Z,1.75
2019-01-11T21:41:11.742Z,2.00
2019-01-11T21:46:15.554Z,4.00
2019-01-11T21:51:19.342Z,1.25
2019-01-11T21:56:23.156Z,2.00
2019-01-11T22:01:26.952Z,2.60
2019-01-11T22:06:30.752Z,2.00
2019-01-11T22:11:34.547Z,2.00
2019-01-11T22:16:38.359Z,2.00
2019-01-11T22:21:42.140Z,2.00
2019-01-11T22:26:45.964Z,3.00
2019-01-11T22:31:49.774Z,2.00
2019-01-11T22:36:53.588Z,3.00
2019-01-11T22:41:57.445Z,2.00
2019-01-11T22:47:01.234Z,3.00
2019-01-11T22:52:05.043Z,2.00
2019-01-11T22:57:08.823Z,2.00
2019-01-11T23:02:51.469Z,1.25
2019-01-11T23:08:01.513Z,2.00
2019-01-11T23:13:14.422Z,1.00
2019-01-11T23:18:23.497Z,2.00
2019-01-11T23:23:27.308Z,2.00
2019-01-11T23:28:31.133Z,2.00
2019-01-11T23:33:34.947Z,2.00
2019-01-11T23:38:38.745Z,2.00
2019-01-11T23:43:42.537Z,2.00
2019-01-11T23:48:46.314Z,2.00
2019-01-11T23:53:50.766Z,2.00
2019-01-11T23:58:54.711Z,1.50
